Time;durP1;ratioP1;P1;durP2;ratioP2;P2;SDS_P1;SDS_P2;PMS_P1;PMS_P2;Temp;Humidity;BMP_temperature;BMP_pressure;BME280_temperature;BME280_humidity;BME280_pressure;Samples;Min_cycle;Max_cycle;Signal;HPM_P1;HPM_P2
2022/05/19 00:00:34;;;;;;;4.23;2.67;;;;;;;;;;5022441;28;20194;-74
2022/05/19 00:03:00;;;;;;;3.00;2.70;;;;;;;;;;5018561;28;20190;-74
2022/05/19 00:05:26;;;;;;;3.27;2.30;;;;;;;;;;5016994;28;20199;-74
2022/05/19 00:07:52;;;;;;;3.23;2.40;;;;;;;;;;5013629;28;20203;-74
2022/05/19 00:10:19;;;;;;;5.57;2.60;;;;;;;;;;5023412;28;20211;-73
2022/05/19 00:12:50;;;;;;;4.03;2.50;;;;;;;;;;5031201;28;20267;-74
2022/05/19 00:15:16;;;;;;;3.83;2.77;;;;;;;;;;5023566;28;20565;-74
2022/05/19 00:17:42;;;;;;;4.80;2.80;;;;;;;;;;5023987;28;20684;-73
2022/05/19 00:20:09;;;;;;;3.30;2.70;;;;;;;;;;5018356;28;20777;-74
2022/05/19 00:22:35;;;;;;;3.10;2.43;;;;;;;;;;5013309;28;20202;-74
2022/05/19 00:25:02;;;;;;;3.33;2.70;;;;;;;;;;5013610;28;20223;-74
2022/05/19 00:27:28;;;;;;;2.70;2.50;;;;;;;;;;5016030;28;20183;-74
2022/05/19 00:29:54;;;;;;;3.20;2.70;;;;;;;;;;5022933;28;20217;-74
2022/05/19 00:32:21;;;;;;;2.87;2.40;;;;;;;;;;5025208;28;20237;-74
2022/05/19 00:34:47;;;;;;;3.20;2.90;;;;;;;;;;5023498;28;20256;-74
2022/05/19 00:37:13;;;;;;;3.57;2.60;;;;;;;;;;5028431;28;20182;-73
2022/05/19 00:39:40;;;;;;;3.03;2.50;;;;;;;;;;5023699;28;20233;-74
2022/05/19 00:44:58;;;;;;;3.90;2.70;;;;;;;;;;5018104;28;20186;-74
2022/05/19 00:47:24;;;;;;;4.23;2.50;;;;;;;;;;5031549;28;20666;-74
2022/05/19 00:49:51;;;;;;;3.50;2.77;;;;;;;;;;5030057;28;20780;-74
2022/05/19 00:52:44;;;;;;;3.23;2.80;;;;;;;;;;5028133;28;20190;-74
2022/05/19 00:55:15;;;;;;;3.23;2.93;;;;;;;;;;5028767;28;20248;-74
2022/05/19 00:57:43;;;;;;;2.57;2.37;;;;;;;;;;5031778;28;20174;-74
2022/05/19 01:00:11;;;;;;;5.30;2.60;;;;;;;;;;5026465;28;20657;-74
2022/05/19 01:02:45;;;;;;;3.60;3.00;;;;;;;;;;5025775;28;20211;-74
2022/05/19 01:05:18;;;;;;;3.10;2.80;;;;;;;;;;5032579;28;20271;-73
2022/05/19 01:07:48;;;;;;;3.27;2.70;;;;;;;;;;5030569;28;20207;-74
2022/05/19 01:10:15;;;;;;;3.10;2.80;;;;;;;;;;5019818;28;20679;-74
2022/05/19 01:12:44;;;;;;;3.27;2.50;;;;;;;;;;5027316;28;20179;-73
2022/05/19 01:15:11;;;;;;;5.87;2.70;;;;;;;;;;5025409;28;20254;-73
2022/05/19 01:17:37;;;;;;;4.17;2.70;;;;;;;;;;5024159;28;20306;-74
2022/05/19 01:20:24;;;;;;;3.03;2.33;;;;;;;;;;5023305;28;20178;-74
2022/05/19 01:22:53;;;;;;;2.90;2.50;;;;;;;;;;5027351;28;20706;-74
2022/05/19 01:25:40;;;;;;;2.77;2.57;;;;;;;;;;5021296;28;20190;-74
2022/05/19 01:28:07;;;;;;;3.07;2.70;;;;;;;;;;5024277;28;20307;-74
2022/05/19 01:30:33;;;;;;;3.47;3.17;;;;;;;;;;5025524;28;20831;-74
2022/05/19 01:33:00;;;;;;;5.00;2.70;;;;;;;;;;5028622;28;20194;-74
2022/05/19 01:35:31;;;;;;;5.43;2.67;;;;;;;;;;5027846;28;20183;-74
2022/05/19 01:37:58;;;;;;;2.60;2.40;;;;;;;;;;5018599;28;20211;-74
2022/05/19 01:40:45;;;;;;;2.70;2.50;;;;;;;;;;5029118;28;20186;-74
2022/05/19 01:43:18;;;;;;;3.83;2.87;;;;;;;;;;5024164;28;20195;-74
2022/05/19 01:45:51;;;;;;;3.83;2.40;;;;;;;;;;5024329;28;20186;-74
2022/05/19 01:48:53;;;;;;;2.90;2.57;;;;;;;;;;5028787;28;20233;-74
2022/05/19 01:51:31;;;;;;;4.00;2.50;;;;;;;;;;5019480;28;20214;-74
2022/05/19 01:54:08;;;;;;;3.03;2.73;;;;;;;;;;5030102;28;20258;-74
2022/05/19 01:56:52;;;;;;;3.70;2.80;;;;;;;;;;5029561;28;20688;-74
2022/05/19 01:59:25;;;;;;;3.43;2.80;;;;;;;;;;5020556;28;20210;-74
2022/05/19 02:02:14;;;;;;;2.87;2.60;;;;;;;;;;5027745;28;20199;-74
2022/05/19 02:04:44;;;;;;;2.57;2.37;;;;;;;;;;5020425;28;20852;-74
2022/05/19 02:07:12;;;;;;;3.23;2.70;;;;;;;;;;5028869;28;20228;-74
2022/05/19 02:09:43;;;;;;;2.73;2.50;;;;;;;;;;5027883;28;20236;-74
2022/05/19 02:12:09;;;;;;;4.07;2.90;;;;;;;;;;5023518;28;20232;-74
2022/05/19 02:14:37;;;;;;;4.73;2.90;;;;;;;;;;5027426;28;20187;-74
2022/05/19 02:17:06;;;;;;;3.53;2.83;;;;;;;;;;5020821;28;20179;-74
2022/05/19 02:19:39;;;;;;;6.17;2.83;;;;;;;;;;5025977;28;20203;-74
2022/05/19 02:22:06;;;;;;;3.30;2.93;;;;;;;;;;5018334;28;20187;-74
2022/05/19 02:24:35;;;;;;;3.30;3.00;;;;;;;;;;5020204;28;20229;-74
2022/05/19 02:27:19;;;;;;;3.37;2.83;;;;;;;;;;5020501;28;20343;-73
2022/05/19 02:29:45;;;;;;;3.17;2.60;;;;;;;;;;5023588;28;20244;-74
2022/05/19 02:32:11;;;;;;;4.77;2.63;;;;;;;;;;5023860;28;20183;-74
2022/05/19 02:34:37;;;;;;;3.43;2.80;;;;;;;;;;5024614;28;20210;-74
2022/05/19 02:37:06;;;;;;;3.90;2.90;;;;;;;;;;5022196;28;20210;-73
2022/05/19 02:39:32;;;;;;;2.60;2.40;;;;;;;;;;5024602;28;20202;-74
2022/05/19 02:41:58;;;;;;;2.53;2.30;;;;;;;;;;5019810;28;20187;-74
2022/05/19 02:44:24;;;;;;;2.87;2.30;;;;;;;;;;5026401;28;20310;-74
2022/05/19 02:46:50;;;;;;;3.20;2.50;;;;;;;;;;5027082;28;20216;-74
2022/05/19 02:49:18;;;;;;;3.00;2.63;;;;;;;;;;5026160;28;20217;-74
2022/05/19 02:51:44;;;;;;;2.30;2.10;;;;;;;;;;5022125;28;20693;-73
2022/05/19 02:54:10;;;;;;;3.47;2.50;;;;;;;;;;5030210;28;20223;-74
2022/05/19 02:56:37;;;;;;;3.93;2.50;;;;;;;;;;5019358;28;20185;-74
2022/05/19 02:59:03;;;;;;;2.63;2.30;;;;;;;;;;5026759;28;20230;-74
2022/05/19 03:01:29;;;;;;;2.33;2.13;;;;;;;;;;5024965;28;20613;-74
2022/05/19 03:03:55;;;;;;;4.70;2.40;;;;;;;;;;5028287;28;20236;-74
2022/05/19 03:06:21;;;;;;;4.53;2.30;;;;;;;;;;5021125;28;20186;-74
2022/05/19 03:08:47;;;;;;;5.13;2.50;;;;;;;;;;5025924;28;20213;-74
2022/05/19 03:11:14;;;;;;;2.50;2.10;;;;;;;;;;5022515;28;20667;-74
2022/05/19 03:13:40;;;;;;;3.00;2.27;;;;;;;;;;5024313;28;20191;-74
2022/05/19 03:16:07;;;;;;;2.30;2.10;;;;;;;;;;5017908;28;20282;-74
2022/05/19 03:18:34;;;;;;;3.13;2.30;;;;;;;;;;5029499;28;20251;-74
2022/05/19 03:21:00;;;;;;;3.30;2.10;;;;;;;;;;5024808;28;20544;-74
2022/05/19 03:23:26;;;;;;;2.23;2.03;;;;;;;;;;5027582;28;20277;-74
2022/05/19 03:25:54;;;;;;;4.33;2.20;;;;;;;;;;5015925;28;20202;-74
2022/05/19 03:28:20;;;;;;;3.23;2.30;;;;;;;;;;5025196;28;20217;-74
2022/05/19 03:30:46;;;;;;;4.00;2.20;;;;;;;;;;5027021;28;20206;-74
2022/05/19 03:33:13;;;;;;;2.73;2.17;;;;;;;;;;5023850;28;20240;-74
2022/05/19 03:35:40;;;;;;;2.67;2.20;;;;;;;;;;5025368;28;20206;-74
2022/05/19 03:38:07;;;;;;;3.47;2.37;;;;;;;;;;5030031;28;20198;-75
2022/05/19 03:40:33;;;;;;;2.50;2.30;;;;;;;;;;5020861;28;20269;-74
2022/05/19 03:42:59;;;;;;;2.57;2.07;;;;;;;;;;5026333;28;20210;-74
2022/05/19 03:45:26;;;;;;;4.20;2.60;;;;;;;;;;5028720;28;20244;-74
2022/05/19 03:47:52;;;;;;;3.27;2.47;;;;;;;;;;5030400;28;20280;-75
2022/05/19 03:50:18;;;;;;;3.70;2.30;;;;;;;;;;5028018;28;20245;-74
2022/05/19 03:52:45;;;;;;;3.83;3.07;;;;;;;;;;5027400;28;20278;-76
2022/05/19 03:55:12;;;;;;;3.73;3.30;;;;;;;;;;5028645;28;20205;-75
2022/05/19 03:57:38;;;;;;;3.93;2.60;;;;;;;;;;5030813;28;20213;-77
2022/05/19 04:00:06;;;;;;;3.47;2.30;;;;;;;;;;5030593;28;20190;-73
2022/05/19 04:02:39;;;;;;;3.67;2.40;;;;;;;;;;5023405;28;20647;-77
2022/05/19 04:05:05;;;;;;;2.47;2.23;;;;;;;;;;5024043;28;20189;-75
2022/05/19 04:07:32;;;;;;;2.53;2.30;;;;;;;;;;5029572;28;20191;-75
2022/05/19 04:09:58;;;;;;;3.00;2.50;;;;;;;;;;5029217;28;20187;-75
2022/05/19 04:12:27;;;;;;;4.87;2.20;;;;;;;;;;5029618;28;20178;-74
2022/05/19 04:14:53;;;;;;;3.27;2.10;;;;;;;;;;5026502;28;20265;-75
2022/05/19 04:17:21;;;;;;;3.17;2.20;;;;;;;;;;5022141;28;20187;-75
2022/05/19 04:19:47;;;;;;;3.83;1.97;;;;;;;;;;5025687;28;20198;-75
2022/05/19 04:22:37;;;;;;;3.50;2.00;;;;;;;;;;5030232;28;20202;-75
2022/05/19 04:25:05;;;;;;;3.03;2.37;;;;;;;;;;5031576;28;20179;-75
2022/05/19 04:27:32;;;;;;;2.87;2.10;;;;;;;;;;5024953;28;20745;-75
2022/05/19 04:29:58;;;;;;;4.47;2.00;;;;;;;;;;5024047;28;20175;-75
2022/05/19 04:32:24;;;;;;;5.50;2.20;;;;;;;;;;5017374;28;20647;-75
2022/05/19 04:34:51;;;;;;;2.17;1.97;;;;;;;;;;5025412;28;20183;-75
2022/05/19 04:37:20;;;;;;;3.03;2.23;;;;;;;;;;5028593;28;20183;-75
2022/05/19 04:39:47;;;;;;;4.43;2.10;;;;;;;;;;5027205;28;20219;-74
2022/05/19 04:42:13;;;;;;;2.43;2.23;;;;;;;;;;5027154;28;20194;-75
2022/05/19 04:44:40;;;;;;;3.33;2.20;;;;;;;;;;5028691;28;20179;-75
2022/05/19 04:47:06;;;;;;;2.97;2.30;;;;;;;;;;5030665;28;20874;-75
2022/05/19 04:49:32;;;;;;;3.50;2.50;;;;;;;;;;5029684;28;20260;-75
2022/05/19 04:51:59;;;;;;;3.23;2.47;;;;;;;;;;5027490;28;20246;-74
2022/05/19 04:54:26;;;;;;;4.10;2.43;;;;;;;;;;5028680;28;20240;-73
2022/05/19 04:56:52;;;;;;;5.20;2.40;;;;;;;;;;5027650;28;20182;-74
2022/05/19 04:59:18;;;;;;;2.43;2.20;;;;;;;;;;5028783;28;20202;-75
2022/05/19 05:01:46;;;;;;;2.23;2.03;;;;;;;;;;5025215;28;20194;-75
2022/05/19 05:04:12;;;;;;;2.87;2.57;;;;;;;;;;5027742;28;20207;-75
2022/05/19 05:06:39;;;;;;;2.40;2.20;;;;;;;;;;5023881;28;20552;-75
2022/05/19 05:09:05;;;;;;;4.43;2.23;;;;;;;;;;5029493;28;20202;-75
2022/05/19 05:11:32;;;;;;;4.10;2.67;;;;;;;;;;5026615;28;20213;-75
2022/05/19 05:13:58;;;;;;;5.37;2.53;;;;;;;;;;5025665;28;21714;-75
2022/05/19 05:16:24;;;;;;;2.50;2.30;;;;;;;;;;5025685;28;20183;-75
2022/05/19 05:18:51;;;;;;;2.97;2.10;;;;;;;;;;5032926;28;20198;-75
2022/05/19 05:21:17;;;;;;;3.60;2.37;;;;;;;;;;5031216;28;20190;-74
2022/05/19 05:23:43;;;;;;;4.00;2.30;;;;;;;;;;5028957;28;20190;-78
2022/05/19 05:26:09;;;;;;;8.50;2.40;;;;;;;;;;5028366;28;22236;-76
2022/05/19 05:28:37;;;;;;;2.63;2.20;;;;;;;;;;5029193;28;20310;-75
2022/05/19 05:31:05;;;;;;;6.87;2.40;;;;;;;;;;5026272;28;20217;-75
2022/05/19 05:33:32;;;;;;;3.87;2.50;;;;;;;;;;5030512;28;20200;-74
2022/05/19 05:35:58;;;;;;;5.67;2.37;;;;;;;;;;5026624;28;20262;-74
2022/05/19 05:38:24;;;;;;;3.53;2.50;;;;;;;;;;5032117;28;20225;-74
2022/05/19 05:40:50;;;;;;;3.37;2.40;;;;;;;;;;5024587;28;20630;-74
2022/05/19 05:43:19;;;;;;;2.67;2.30;;;;;;;;;;5024678;28;20214;-77
2022/05/19 05:45:45;;;;;;;2.93;2.40;;;;;;;;;;5017179;28;20194;-77
2022/05/19 05:48:12;;;;;;;3.37;2.13;;;;;;;;;;5026364;28;20206;-77
2022/05/19 05:50:39;;;;;;;4.77;2.60;;;;;;;;;;5017619;28;20225;-77
2022/05/19 05:53:06;;;;;;;5.50;2.57;;;;;;;;;;5025555;28;20189;-77
2022/05/19 05:55:33;;;;;;;5.27;3.07;;;;;;;;;;5017834;28;20197;-73
2022/05/19 05:58:00;;;;;;;2.87;2.57;;;;;;;;;;5029446;28;20264;-73
2022/05/19 06:00:26;;;;;;;3.03;2.50;;;;;;;;;;5016952;28;21494;-73
2022/05/19 06:02:52;;;;;;;3.00;2.70;;;;;;;;;;5031238;28;20655;-72
2022/05/19 06:05:19;;;;;;;3.60;2.53;;;;;;;;;;5022824;28;20275;-72
2022/05/19 06:07:45;;;;;;;2.67;2.20;;;;;;;;;;5016493;28;20587;-73
2022/05/19 06:10:12;;;;;;;2.57;2.37;;;;;;;;;;5019397;28;20206;-73
2022/05/19 06:12:39;;;;;;;6.27;2.30;;;;;;;;;;5014741;28;20242;-71
2022/05/19 06:15:05;;;;;;;5.30;2.40;;;;;;;;;;5026157;28;20608;-73
2022/05/19 06:17:32;;;;;;;6.03;2.40;;;;;;;;;;5025095;28;20532;-73
2022/05/19 06:20:14;;;;;;;4.63;2.20;;;;;;;;;;5018399;28;20190;-74
2022/05/19 06:22:42;;;;;;;4.80;2.43;;;;;;;;;;5028639;28;20193;-74
2022/05/19 06:25:09;;;;;;;2.47;2.00;;;;;;;;;;5027286;28;20254;-73
2022/05/19 06:27:35;;;;;;;6.17;2.10;;;;;;;;;;5027143;28;20179;-72
2022/05/19 06:30:01;;;;;;;4.33;2.30;;;;;;;;;;5030018;28;20631;-73
2022/05/19 06:32:28;;;;;;;2.30;2.10;;;;;;;;;;5021258;28;20233;-74
2022/05/19 06:34:55;;;;;;;4.43;1.80;;;;;;;;;;5025677;28;20188;-73
2022/05/19 06:37:21;;;;;;;6.07;2.23;;;;;;;;;;5017311;28;20257;-74
2022/05/19 06:39:47;;;;;;;3.23;2.00;;;;;;;;;;5028513;28;20201;-73
2022/05/19 06:42:16;;;;;;;2.50;2.07;;;;;;;;;;5030831;28;20240;-73
2022/05/19 06:44:43;;;;;;;2.97;1.93;;;;;;;;;;5024557;28;20182;-73
2022/05/19 06:47:13;;;;;;;2.60;1.93;;;;;;;;;;5025846;28;20189;-73
2022/05/19 06:49:43;;;;;;;3.80;2.00;;;;;;;;;;5026095;28;21287;-73
2022/05/19 06:52:13;;;;;;;3.57;2.10;;;;;;;;;;5028617;28;20209;-73
2022/05/19 06:54:41;;;;;;;1.80;1.70;;;;;;;;;;5028617;28;21051;-74
2022/05/19 06:57:07;;;;;;;3.27;1.90;;;;;;;;;;5028796;28;20185;-73
2022/05/19 06:59:33;;;;;;;3.37;2.00;;;;;;;;;;5028187;28;20198;-73
2022/05/19 07:02:10;;;;;;;2.17;1.93;;;;;;;;;;5028196;28;20201;-72
2022/05/19 07:04:36;;;;;;;3.67;2.00;;;;;;;;;;5027658;28;20305;-73
2022/05/19 07:07:04;;;;;;;2.63;2.10;;;;;;;;;;5028741;28;20186;-72
2022/05/19 07:09:31;;;;;;;4.03;2.00;;;;;;;;;;5026954;28;20642;-72
2022/05/19 07:11:57;;;;;;;4.30;2.17;;;;;;;;;;5027877;28;20294;-72
2022/05/19 07:14:23;;;;;;;2.30;1.97;;;;;;;;;;5026644;28;20593;-73
2022/05/19 07:16:49;;;;;;;5.60;1.90;;;;;;;;;;5028010;28;20217;-73
2022/05/19 07:22:22;;;;;;;4.70;1.90;;;;;;;;;;5028306;28;20238;-73
2022/05/19 07:24:49;;;;;;;3.23;1.93;;;;;;;;;;5031062;28;20202;-73
2022/05/19 07:27:16;;;;;;;3.43;1.90;;;;;;;;;;5027878;28;20274;-75
2022/05/19 07:29:43;;;;;;;2.93;1.90;;;;;;;;;;5020854;28;20242;-74
2022/05/19 07:32:09;;;;;;;3.27;2.00;;;;;;;;;;5013317;28;20301;-74
2022/05/19 07:34:37;;;;;;;5.43;2.50;;;;;;;;;;5014541;28;20175;-74
2022/05/19 07:37:04;;;;;;;2.30;2.10;;;;;;;;;;5025005;28;20186;-74
2022/05/19 07:39:30;;;;;;;5.03;2.40;;;;;;;;;;5033785;28;20209;-73
2022/05/19 07:41:56;;;;;;;4.67;2.40;;;;;;;;;;5029768;28;20208;-73
2022/05/19 07:44:23;;;;;;;3.30;2.30;;;;;;;;;;5034694;28;20709;-74
2022/05/19 07:46:50;;;;;;;4.10;2.30;;;;;;;;;;5033428;28;20642;-72
2022/05/19 07:49:17;;;;;;;2.20;1.93;;;;;;;;;;5033757;28;20240;-73
2022/05/19 07:51:44;;;;;;;3.83;2.17;;;;;;;;;;5032600;28;20293;-73
2022/05/19 07:54:11;;;;;;;3.27;2.47;;;;;;;;;;5032634;28;20585;-73
2022/05/19 07:56:38;;;;;;;4.83;2.30;;;;;;;;;;5032987;28;20201;-73
2022/05/19 07:59:05;;;;;;;3.50;2.27;;;;;;;;;;5031788;28;20198;-73
2022/05/19 08:01:33;;;;;;;2.70;2.50;;;;;;;;;;5032708;28;20349;-74
2022/05/19 08:04:01;;;;;;;4.03;2.00;;;;;;;;;;5031519;28;20193;-73
2022/05/19 08:06:30;;;;;;;4.00;2.33;;;;;;;;;;5032985;28;20194;-73
2022/05/19 08:08:58;;;;;;;5.97;2.70;;;;;;;;;;5028867;28;20295;-74
2022/05/19 08:11:24;;;;;;;2.50;2.30;;;;;;;;;;5022338;28;20228;-73
2022/05/19 08:16:35;;;;;;;3.83;2.23;;;;;;;;;;5026546;28;20188;-74
2022/05/19 08:19:02;;;;;;;3.60;2.47;;;;;;;;;;5029983;28;20210;-73
2022/05/19 08:21:29;;;;;;;5.57;2.70;;;;;;;;;;5031716;28;20189;-74
2022/05/19 08:23:55;;;;;;;4.10;2.50;;;;;;;;;;5019250;28;20180;-75
2022/05/19 08:26:21;;;;;;;4.43;2.20;;;;;;;;;;5022418;28;20175;-75
2022/05/19 08:28:48;;;;;;;8.20;2.50;;;;;;;;;;5030051;28;20222;-74
2022/05/19 08:31:16;;;;;;;3.33;2.23;;;;;;;;;;5032284;28;20211;-77
2022/05/19 08:33:43;;;;;;;3.50;2.20;;;;;;;;;;5026046;28;20191;-71
2022/05/19 08:36:10;;;;;;;13.00;3.70;;;;;;;;;;5030032;28;20178;-71
2022/05/19 08:38:36;;;;;;;3.77;2.43;;;;;;;;;;5027051;28;20198;-70
2022/05/19 08:41:25;;;;;;;7.57;2.67;;;;;;;;;;5012735;28;20203;-70
2022/05/19 08:43:54;;;;;;;3.60;2.30;;;;;;;;;;5012088;28;20191;-72
2022/05/19 08:46:28;;;;;;;5.63;2.40;;;;;;;;;;5020503;28;20175;-72
2022/05/19 08:48:59;;;;;;;4.70;2.37;;;;;;;;;;5017695;28;20207;-72
2022/05/19 08:51:29;;;;;;;7.33;2.43;;;;;;;;;;5022882;28;20242;-72
2022/05/19 08:53:58;;;;;;;3.97;2.50;;;;;;;;;;5027211;28;20934;-72
2022/05/19 08:56:25;;;;;;;3.40;2.40;;;;;;;;;;5017890;28;20170;-71
2022/05/19 08:58:52;;;;;;;3.30;2.10;;;;;;;;;;5029728;28;20615;-71
2022/05/19 09:01:37;;;;;;;2.87;2.03;;;;;;;;;;5032076;28;20247;-71
2022/05/19 09:04:03;;;;;;;3.80;2.27;;;;;;;;;;5025884;28;20202;-72
2022/05/19 09:06:35;;;;;;;3.40;2.00;;;;;;;;;;5017196;28;20572;-72
2022/05/19 09:09:18;;;;;;;3.30;2.00;;;;;;;;;;5029090;28;20207;-72
2022/05/19 09:12:00;;;;;;;1.80;1.70;;;;;;;;;;5031361;28;20250;-71
2022/05/19 09:14:28;;;;;;;3.40;2.10;;;;;;;;;;5033538;28;20558;-71
2022/05/19 09:16:58;;;;;;;3.17;2.20;;;;;;;;;;5030997;28;20189;-72
2022/05/19 09:19:28;;;;;;;2.37;2.00;;;;;;;;;;5019317;28;20195;-71
2022/05/19 09:22:00;;;;;;;4.70;2.00;;;;;;;;;;5016411;28;20713;-71
2022/05/19 09:24:26;;;;;;;3.40;2.50;;;;;;;;;;5028450;28;20172;-71
2022/05/19 09:26:55;;;;;;;4.00;2.10;;;;;;;;;;5023926;28;20273;-71
2022/05/19 09:29:40;;;;;;;3.13;2.20;;;;;;;;;;5014833;28;20195;-71
2022/05/19 09:32:13;;;;;;;3.43;2.00;;;;;;;;;;5022135;28;20206;-71
2022/05/19 09:34:42;;;;;;;4.27;2.10;;;;;;;;;;5024547;28;20265;-71
2022/05/19 09:37:14;;;;;;;4.43;2.70;;;;;;;;;;5026523;28;20336;-71
2022/05/19 09:39:45;;;;;;;2.60;2.10;;;;;;;;;;5018628;28;20209;-71
2022/05/19 09:42:14;;;;;;;2.80;2.37;;;;;;;;;;5024761;28;20186;-72
2022/05/19 09:44:50;;;;;;;3.33;2.50;;;;;;;;;;5027562;28;20742;-72
2022/05/19 09:47:24;;;;;;;3.70;2.20;;;;;;;;;;5024825;28;20190;-72
2022/05/19 09:50:02;;;;;;;2.50;2.13;;;;;;;;;;5023633;28;20216;-72
2022/05/19 09:52:32;;;;;;;3.57;2.57;;;;;;;;;;5029770;28;20192;-72
2022/05/19 09:55:00;;;;;;;3.53;2.50;;;;;;;;;;5022692;28;20750;-71
2022/05/19 09:57:39;;;;;;;5.47;2.57;;;;;;;;;;5031388;28;20178;-72
2022/05/19 10:00:09;;;;;;;3.53;2.80;;;;;;;;;;5033402;28;20638;-72
2022/05/19 10:02:40;;;;;;;5.00;2.80;;;;;;;;;;5026368;28;20917;-73
2022/05/19 10:05:26;;;;;;;5.00;2.90;;;;;;;;;;5030078;28;20878;-73
2022/05/19 10:07:57;;;;;;;3.50;2.90;;;;;;;;;;5029494;28;20238;-74
2022/05/19 10:10:25;;;;;;;10.87;3.20;;;;;;;;;;5023768;28;20286;-73
2022/05/19 10:12:56;;;;;;;3.43;2.70;;;;;;;;;;5031626;28;20194;-73
2022/05/19 10:15:26;;;;;;;4.53;2.83;;;;;;;;;;5017239;28;20189;-73
2022/05/19 10:18:06;;;;;;;7.23;3.10;;;;;;;;;;5026494;28;20671;-73
2022/05/19 10:20:48;;;;;;;5.40;3.00;;;;;;;;;;5020245;28;20325;-73
2022/05/19 10:23:15;;;;;;;5.17;3.10;;;;;;;;;;5023184;28;20189;-73
2022/05/19 10:25:47;;;;;;;7.50;3.13;;;;;;;;;;5030690;28;20201;-73
2022/05/19 10:31:33;;;;;;;3.60;3.07;;;;;;;;;;5024330;28;20218;-73
2022/05/19 10:34:23;;;;;;;3.97;3.10;;;;;;;;;;5033686;28;20243;-73
2022/05/19 10:36:58;;;;;;;3.40;3.00;;;;;;;;;;5025078;28;20187;-74
2022/05/19 10:39:42;;;;;;;7.73;3.00;;;;;;;;;;5018830;28;20734;-77
2022/05/19 10:42:36;;;;;;;3.53;3.00;;;;;;;;;;5029424;28;20192;-74
2022/05/19 10:45:22;;;;;;;4.27;3.23;;;;;;;;;;5029965;28;20193;-74
2022/05/19 10:47:48;;;;;;;5.37;3.57;;;;;;;;;;5027686;28;20328;-74
2022/05/19 10:50:23;;;;;;;4.73;3.40;;;;;;;;;;5025191;28;20185;-73
2022/05/19 10:53:08;;;;;;;5.20;3.23;;;;;;;;;;5022076;28;20174;-75
2022/05/19 10:55:52;;;;;;;3.30;3.00;;;;;;;;;;5025030;28;20204;-74
2022/05/19 10:58:21;;;;;;;4.03;2.80;;;;;;;;;;5028216;28;20201;-75
2022/05/19 11:00:58;;;;;;;5.10;3.30;;;;;;;;;;5027880;28;20210;-75
2022/05/19 11:03:35;;;;;;;4.90;2.70;;;;;;;;;;5029872;28;20187;-80
2022/05/19 11:06:15;;;;;;;3.30;2.67;;;;;;;;;;5031783;28;20183;-81
2022/05/19 11:08:46;;;;;;;4.53;3.20;;;;;;;;;;5028569;28;20236;-75
2022/05/19 11:11:18;;;;;;;4.77;3.20;;;;;;;;;;5023348;28;20727;-76
2022/05/19 11:13:57;;;;;;;5.73;3.37;;;;;;;;;;5028985;28;20592;-75
2022/05/19 11:16:27;;;;;;;5.93;3.27;;;;;;;;;;5022640;28;20259;-75
2022/05/19 11:19:04;;;;;;;7.83;3.40;;;;;;;;;;5022826;28;20222;-74
2022/05/19 11:21:38;;;;;;;6.00;3.00;;;;;;;;;;5020937;28;20218;-74
2022/05/19 11:24:23;;;;;;;6.07;3.33;;;;;;;;;;5021788;28;20243;-75
2022/05/19 11:27:04;;;;;;;3.67;2.90;;;;;;;;;;5022268;28;20710;-72
2022/05/19 11:29:37;;;;;;;4.50;3.10;;;;;;;;;;5021898;28;20208;-74
2022/05/19 11:32:06;;;;;;;4.37;2.90;;;;;;;;;;5018686;28;20214;-74
2022/05/19 11:34:51;;;;;;;6.37;3.30;;;;;;;;;;5022408;28;20241;-75
2022/05/19 11:37:20;;;;;;;3.80;2.80;;;;;;;;;;5020034;28;20546;-74
2022/05/19 11:40:02;;;;;;;4.50;3.13;;;;;;;;;;5016227;28;20205;-75
2022/05/19 11:42:38;;;;;;;4.70;3.30;;;;;;;;;;5029825;28;20217;-75
2022/05/19 11:45:06;;;;;;;5.23;3.13;;;;;;;;;;5028015;28;20212;-75
2022/05/19 11:55:56;;;;;;;4.23;3.23;;;;;;;;;;5027752;28;20184;-76
2022/05/19 11:58:28;;;;;;;3.13;2.83;;;;;;;;;;5024730;28;20271;-73
2022/05/19 12:00:59;;;;;;;6.07;3.30;;;;;;;;;;5028713;28;20192;-75
2022/05/19 12:03:37;;;;;;;4.10;3.37;;;;;;;;;;5025845;28;20235;-74
2022/05/19 12:06:03;;;;;;;5.07;3.30;;;;;;;;;;5019902;28;20550;-74
2022/05/19 12:08:31;;;;;;;7.93;3.13;;;;;;;;;;5027444;28;20339;-75
2022/05/19 12:11:17;;;;;;;6.73;3.03;;;;;;;;;;5014339;28;20210;-74
2022/05/19 12:13:51;;;;;;;6.07;3.30;;;;;;;;;;5014244;28;20663;-74
2022/05/19 12:16:24;;;;;;;4.37;3.50;;;;;;;;;;5020817;28;20192;-76
2022/05/19 12:19:02;;;;;;;4.70;3.50;;;;;;;;;;5033437;28;20264;-75
2022/05/19 12:21:39;;;;;;;3.57;3.27;;;;;;;;;;5017611;28;20190;-75
2022/05/19 12:24:08;;;;;;;6.60;3.30;;;;;;;;;;5033745;28;20228;-73
2022/05/19 12:26:54;;;;;;;6.00;3.00;;;;;;;;;;5029069;28;20210;-75
2022/05/19 12:29:26;;;;;;;5.17;3.33;;;;;;;;;;5027551;28;20696;-74
2022/05/19 12:31:59;;;;;;;5.23;3.20;;;;;;;;;;5014813;28;20688;-75
2022/05/19 12:34:31;;;;;;;5.00;3.10;;;;;;;;;;5024925;28;20194;-76
2022/05/19 12:37:06;;;;;;;5.17;3.23;;;;;;;;;;5025759;28;20182;-76
2022/05/19 12:39:46;;;;;;;6.20;3.30;;;;;;;;;;5022874;28;20340;-75
2022/05/19 12:42:24;;;;;;;6.07;3.17;;;;;;;;;;5026204;28;20338;-76
2022/05/19 12:44:51;;;;;;;5.17;3.20;;;;;;;;;;5025044;28;20186;-74
2022/05/19 12:47:29;;;;;;;5.87;3.00;;;;;;;;;;5020813;28;20224;-75
2022/05/19 12:50:01;;;;;;;3.97;3.20;;;;;;;;;;5023178;28;20191;-76
2022/05/19 12:52:46;;;;;;;6.47;3.30;;;;;;;;;;5028894;28;20219;-76
2022/05/19 12:55:25;;;;;;;5.20;3.07;;;;;;;;;;5023606;28;20177;-75
2022/05/19 12:57:55;;;;;;;4.77;3.23;;;;;;;;;;5029654;28;20210;-76
2022/05/19 13:00:22;;;;;;;6.67;3.33;;;;;;;;;;5022912;28;20668;-75
2022/05/19 13:03:06;;;;;;;5.20;3.17;;;;;;;;;;5027734;28;20180;-75
2022/05/19 13:05:36;;;;;;;5.13;3.23;;;;;;;;;;5030039;28;20222;-74
2022/05/19 13:08:13;;;;;;;7.70;3.00;;;;;;;;;;5028994;28;20213;-77
2022/05/19 13:10:41;;;;;;;3.23;2.90;;;;;;;;;;5020486;28;20551;-77
2022/05/19 13:13:26;;;;;;;3.90;3.27;;;;;;;;;;5030263;28;20244;-76
2022/05/19 13:15:59;;;;;;;4.27;2.97;;;;;;;;;;5024212;28;20189;-76
2022/05/19 13:18:28;;;;;;;5.07;3.00;;;;;;;;;;5024879;28;20240;-74
2022/05/19 13:21:03;;;;;;;4.60;3.00;;;;;;;;;;5023082;28;20261;-76
2022/05/19 13:23:30;;;;;;;4.68;2.95;;;;;;;;;;5026026;28;20247;-76
2022/05/19 13:26:00;;;;;;;3.08;2.78;;;;;;;;;;5029571;28;20719;-76
2022/05/19 13:31:19;;;;;;;4.78;2.90;;;;;;;;;;5020463;28;20204;-76
2022/05/19 13:33:48;;;;;;;3.55;3.00;;;;;;;;;;5026062;28;20578;-75
2022/05/19 13:36:14;;;;;;;5.68;3.50;;;;;;;;;;5024627;28;20186;-77
2022/05/19 13:38:41;;;;;;;5.05;3.10;;;;;;;;;;5026057;28;20216;-75
2022/05/19 13:41:10;;;;;;;4.70;2.90;;;;;;;;;;5023868;28;20235;-76
2022/05/19 13:43:38;;;;;;;4.82;3.08;;;;;;;;;;5028494;28;20298;-76
2022/05/19 13:46:06;;;;;;;3.42;2.83;;;;;;;;;;5030412;28;20207;-75
2022/05/19 13:48:51;;;;;;;4.90;2.70;;;;;;;;;;5028452;28;20571;-75
2022/05/19 13:51:19;;;;;;;5.57;3.13;;;;;;;;;;5018967;28;20211;-74
2022/05/19 13:53:48;;;;;;;3.72;2.80;;;;;;;;;;5020480;28;20771;-74
2022/05/19 13:56:14;;;;;;;6.38;3.03;;;;;;;;;;5027447;28;20193;-74
2022/05/19 13:58:46;;;;;;;3.30;2.90;;;;;;;;;;5020975;28;20624;-74
2022/05/19 14:01:16;;;;;;;8.90;3.40;;;;;;;;;;5024609;28;20463;-74
2022/05/19 14:03:43;;;;;;;4.07;2.97;;;;;;;;;;5023769;28;20934;-73
2022/05/19 14:06:10;;;;;;;3.95;2.88;;;;;;;;;;5029108;28;20174;-74
2022/05/19 14:08:37;;;;;;;6.15;3.03;;;;;;;;;;5020764;28;20231;-74
2022/05/19 14:11:03;;;;;;;5.28;3.25;;;;;;;;;;5029120;28;20198;-74
2022/05/19 14:13:30;;;;;;;3.28;2.80;;;;;;;;;;5027662;28;20178;-75
2022/05/19 14:16:05;;;;;;;5.68;3.45;;;;;;;;;;5027552;28;20186;-74
2022/05/19 14:18:40;;;;;;;4.72;2.97;;;;;;;;;;5022994;28;20348;-75
2022/05/19 14:21:09;;;;;;;4.32;3.35;;;;;;;;;;5024540;28;20658;-75
2022/05/19 14:23:35;;;;;;;5.13;3.40;;;;;;;;;;5024486;28;20218;-75
2022/05/19 14:26:03;;;;;;;8.48;2.92;;;;;;;;;;5022449;28;20180;-75
2022/05/19 14:28:33;;;;;;;4.05;2.80;;;;;;;;;;5021849;28;20208;-75
2022/05/19 14:31:06;;;;;;;6.25;3.30;;;;;;;;;;5027990;28;20558;-74
2022/05/19 14:33:40;;;;;;;7.72;3.25;;;;;;;;;;5029249;28;20165;-75
2022/05/19 14:36:10;;;;;;;8.82;3.35;;;;;;;;;;5022402;28;20197;-75
2022/05/19 14:38:41;;;;;;;15.63;3.50;;;;;;;;;;5021254;28;20205;-75
2022/05/19 14:44:02;;;;;;;5.90;3.33;;;;;;;;;;5019089;28;20192;-74
2022/05/19 14:46:28;;;;;;;6.10;3.13;;;;;;;;;;5028497;28;20220;-75
2022/05/19 14:48:59;;;;;;;5.20;3.40;;;;;;;;;;5024809;28;20771;-74
2022/05/19 14:51:29;;;;;;;5.50;3.50;;;;;;;;;;5029489;28;20693;-75
2022/05/19 14:53:57;;;;;;;4.28;3.03;;;;;;;;;;5023264;28;20261;-75
2022/05/19 14:56:23;;;;;;;4.10;3.05;;;;;;;;;;5026967;28;20194;-74
2022/05/19 14:58:54;;;;;;;8.73;2.90;;;;;;;;;;5018055;28;20192;-74
2022/05/19 15:01:20;;;;;;;4.85;3.30;;;;;;;;;;5028642;28;20207;-74
2022/05/19 15:03:47;;;;;;;8.43;3.30;;;;;;;;;;5022116;28;20213;-74
2022/05/19 15:06:15;;;;;;;5.88;3.78;;;;;;;;;;5025425;28;20618;-74
2022/05/19 15:08:50;;;;;;;4.72;2.90;;;;;;;;;;5025449;28;20206;-74
2022/05/19 15:11:17;;;;;;;7.30;2.80;;;;;;;;;;5030437;28;20947;-74
2022/05/19 15:13:43;;;;;;;3.88;3.05;;;;;;;;;;5021894;28;20259;-74
2022/05/19 15:16:09;;;;;;;4.38;3.30;;;;;;;;;;5019957;28;20246;-74
2022/05/19 15:18:37;;;;;;;6.60;2.97;;;;;;;;;;5028162;28;20731;-73
2022/05/19 15:21:03;;;;;;;6.18;3.20;;;;;;;;;;5026090;28;20196;-74
2022/05/19 15:23:29;;;;;;;3.78;3.05;;;;;;;;;;5024897;28;20209;-75
2022/05/19 15:25:56;;;;;;;7.95;3.22;;;;;;;;;;5025555;28;20194;-74